首页
METAR-TAF:

METAR-TAF

机场 :

直布羅陀機場

直布罗陀, 直布罗陀

纬度: 36-09N, 经度: 005-21W, 海拔: 5米

当前天气观测

该预报发布于43分钟前的12:50 UTC
风速13节,风向
温度 17°C
湿度 94%
气压 1012 hPa
能見度: 9000
少量云层高于700英尺
散云层高于1300英尺
多云层高于5000英尺

METAR: LXGB 171250Z 10013KT 9000 HZ FEW007 SCT013 BKN050 17/16 Q1012 NOSIG

时间: 14:33 (13:33 UTC)

预报

该预报发布于1小时和21分钟前的12:12 UTC
预报有效从17日的 12点(UTC)到 17日的 18点(UTC)
风速15节,风向
能見度: 7000
少量云层高于600英尺
多云层高于900英尺
多云层高于2500英尺
轻雾
几率 40% :
短暂存在
从 17日的 12点(UTC)到 17日的 14点(UTC)
风速15节,风向东转东南,有时为25节阵风
能見度: 3500
散云层高于600英尺
多云层高于900英尺
大雨
短暂存在
从 17日的 14点(UTC)到 17日的 18点(UTC)
风速15节,风向东转东南,有时为25节阵风
能見度: 9000
少量云层高于900英尺
轻雾

TAF: LXGB 171212Z 1712/1718 09015KT 7000 BR FEW006 BKN009 BKN025 PROB40 TEMPO 1712/1714 12015G25KT 3500 +RA SCT006 BKN009 520001 TEMPO 1714/1718 12015G25KT 9000 BR FEW009 520001

超过4000个机场的气象观测和天气预报(METAR&TAF报告)。

可查询的气象台以黄色和红色小点在地图上表示。

将鼠标移到小点上方,可查看气象台名称。

然后点击查看天气观测和预报。

如需切换地图:点击带黑十字的绿色按钮放大地图;点击带横线的绿色按钮缩小地图;或者点击绿色箭头查看邻近地区的地图。


METAR-TAF: